Terminal Aerodrome Forecast
Issued by NWS

Home | Current Version | Previous Version | Text Only | Print | Product List | Glossary On
Versions: 1 2 3 4 5 6 7 8 9 10 11 12 13 14 15
127
FTUS46 KPDT 241128
TAFRDM
TAF
KRDM 241128Z 2412/2512 21011KT P6SM VCSH SCT060 BKN100
     FM241800 21014G24KT P6SM VCSH BKN050 OVC090
     FM250200 32011KT P6SM VCSH BKN040 BKN080=

USA.gov is the U.S. government's official web portal to all federal, state and local government web resources and services.